Longtown, Missouri
Current Conditions -  °F | °C
As of 6:15 PM on Wednesday 26 Nov 2014 (Local Time) from KFAM Reporting Station
Overcast Overcast  
Wind Chill: 31°   Ceiling: 3600
Heat Index: 36°   Visibility: 10mi
Dew Point: 34°   Wind: 6mph
Humidity: 93%   Direction: 260°W
Pressure: 30.04"   Gusts: NA
Location:  37.7127°N, 89.8903°W
Report Text: KFAM 270015Z AUTO 26005KT 10SM SCT017 BKN036 OVC095 02/01 A3004 RMK AO1
Loading
Personal Weather Stations






























Interactive Weather Map New forecast layout! Learn more

10-Day Weather Forecast

Advertisements
Track Severe Weather on mobile